Time,TemperatureF,DewpointF,PressureIn,WindDirection,WindDirectionDegrees,WindSpeedMPH,WindSpeedGustMPH,Humidity,HourlyPrecipIn,Conditions,Clouds,dailyrainin,SolarRadiationWatts/m^2,SoftwareType,DateUTC
2013-08-29 00:04:00,64.3,64.0,29.97,NE,55,0.0,11.0,97,0.00,,,0.00,0,weatherlink.com 1.10,2013-08-29 04:04:00,
2013-08-29 00:19:00,64.1,63.0,29.96,NE,55,7.0,10.0,97,0.00,,,0.00,0,weatherlink.com 1.10,2013-08-29 04:19:00,
2013-08-29 00:34:00,64.3,64.0,29.98,NE,55,8.0,10.0,97,0.00,,,0.00,0,weatherlink.com 1.10,2013-08-29 04:34:00,
2013-08-29 00:49:00,64.4,64.0,29.97,NE,55,0.0,8.0,97,0.00,,,0.00,0,weatherlink.com 1.10,2013-08-29 04:49:00,
2013-08-29 01:04:00,64.5,64.0,29.96,NE,55,3.0,7.0,97,0.00,,,0.00,0,weatherlink.com 1.10,2013-08-29 05:04:00,
2013-08-29 01:19:00,64.4,64.0,29.97,NE,55,0.0,0.0,97,0.00,,,0.00,0,weatherlink.com 1.10,2013-08-29 05:19:00,
2013-08-29 01:34:00,64.4,64.0,29.97,NE,55,2.0,5.0,97,0.00,,,0.00,0,weatherlink.com 1.10,2013-08-29 05:34:00,
2013-08-29 01:49:00,64.3,64.0,29.96,NE,55,0.0,2.0,97,0.00,,,0.00,0,weatherlink.com 1.10,2013-08-29 05:49:00,
2013-08-29 02:04:00,64.3,64.0,29.96,NE,55,0.0,7.0,97,0.00,,,0.00,0,weatherlink.com 1.10,2013-08-29 06:04:00,
2013-08-29 02:19:00,64.2,63.0,29.97,NE,55,0.0,4.0,97,0.00,,,0.00,0,weatherlink.com 1.10,2013-08-29 06:19:00,
2013-08-29 02:34:00,64.2,63.0,29.96,NE,55,0.0,0.0,97,0.00,,,0.00,0,weatherlink.com 1.10,2013-08-29 06:34:00,
2013-08-29 02:49:00,64.3,64.0,29.96,NE,55,3.0,5.0,97,0.00,,,0.00,0,weatherlink.com 1.10,2013-08-29 06:49:00,
2013-08-29 03:04:00,64.3,64.0,29.95,NE,55,0.0,0.0,97,0.00,,,0.00,0,weatherlink.com 1.10,2013-08-29 07:04:00,
2013-08-29 03:19:00,64.3,64.0,29.96,NE,55,0.0,3.0,97,0.00,,,0.00,0,weatherlink.com 1.10,2013-08-29 07:19:00,
2013-08-29 03:34:00,64.2,63.0,29.96,NE,55,4.0,8.0,97,0.00,,,0.00,0,weatherlink.com 1.10,2013-08-29 07:34:00,
2013-08-29 03:49:00,63.9,63.0,29.96,NE,55,8.0,10.0,97,0.00,,,0.00,0,weatherlink.com 1.10,2013-08-29 07:49:00,
2013-08-29 04:04:00,64.0,63.0,29.97,NE,55,6.0,10.0,97,0.00,,,0.00,0,weatherlink.com 1.10,2013-08-29 08:04:00,
2013-08-29 04:19:00,64.0,63.0,29.98,NE,55,0.0,9.0,97,0.01,,,0.01,0,weatherlink.com 1.10,2013-08-29 08:19:00,
2013-08-29 04:34:00,64.0,63.0,29.98,NE,55,0.0,6.0,97,0.01,,,0.01,0,weatherlink.com 1.10,2013-08-29 08:34:00,
2013-08-29 04:49:00,64.0,63.0,29.99,NE,55,8.0,9.0,97,0.01,,,0.01,0,weatherlink.com 1.10,2013-08-29 08:49:00,
2013-08-29 05:04:00,64.1,63.0,29.99,NE,55,8.0,11.0,97,0.01,,,0.01,0,weatherlink.com 1.10,2013-08-29 09:04:00,
2013-08-29 05:19:00,64.0,63.0,30.00,NE,55,4.0,10.0,97,0.00,,,0.01,0,weatherlink.com 1.10,2013-08-29 09:19:00,
2013-08-29 05:34:00,64.1,63.0,30.00,NE,55,6.0,9.0,97,0.00,,,0.01,0,weatherlink.com 1.10,2013-08-29 09:34:00,
2013-08-29 05:49:00,64.0,63.0,30.00,NE,55,2.0,7.0,97,0.00,,,0.01,0,weatherlink.com 1.10,2013-08-29 09:49:00,
2013-08-29 06:04:00,63.9,63.0,30.00,NE,55,3.0,8.0,97,0.00,,,0.01,0,weatherlink.com 1.10,2013-08-29 10:04:00,
2013-08-29 06:19:00,63.9,63.0,30.00,NE,55,7.0,10.0,97,0.00,,,0.01,0,weatherlink.com 1.10,2013-08-29 10:19:00,
2013-08-29 06:34:00,64.0,64.0,30.00,NE,55,11.0,12.0,98,0.00,,,0.01,0,weatherlink.com 1.10,2013-08-29 10:34:00,
2013-08-29 06:49:00,64.1,64.0,30.01,NE,55,5.0,7.0,98,0.00,,,0.01,5,weatherlink.com 1.10,2013-08-29 10:49:00,
2013-08-29 07:04:00,64.1,64.0,30.00,NE,55,0.0,8.0,98,0.00,,,0.01,9,weatherlink.com 1.10,2013-08-29 11:04:00,
2013-08-29 07:19:00,64.6,64.0,30.01,NE,44,9.0,13.0,98,0.00,,,0.01,18,weatherlink.com 1.10,2013-08-29 11:19:00,
2013-08-29 07:34:00,64.7,64.0,30.02,NE,40,5.0,12.0,98,0.00,,,0.01,18,weatherlink.com 1.10,2013-08-29 11:34:00,
2013-08-29 07:49:00,64.7,64.0,30.02,NE,43,4.0,12.0,98,0.00,,,0.01,16,weatherlink.com 1.10,2013-08-29 11:49:00,
2013-08-29 08:04:00,64.7,64.0,30.03,NE,49,9.0,13.0,98,0.00,,,0.01,39,weatherlink.com 1.10,2013-08-29 12:04:00,
2013-08-29 08:19:00,64.5,64.0,30.02,NE,48,9.0,14.0,98,0.00,,,0.01,40,weatherlink.com 1.10,2013-08-29 12:19:00,
2013-08-29 08:34:00,64.8,64.0,30.03,NE,38,7.0,14.0,98,0.00,,,0.01,35,weatherlink.com 1.10,2013-08-29 12:34:00,
2013-08-29 08:49:00,65.0,64.0,30.03,NE,39,9.0,15.0,97,0.00,,,0.01,42,weatherlink.com 1.10,2013-08-29 12:49:00,
2013-08-29 09:05:00,64.8,64.0,30.03,North,360,6.0,15.0,97,0.00,,,0.01,76,weatherlink.com 1.10,2013-08-29 13:05:00,
2013-08-29 09:20:00,64.6,64.0,30.03,NE,35,10.0,21.0,97,0.00,,,0.01,90,weatherlink.com 1.10,2013-08-29 13:20:00,
2013-08-29 09:35:00,64.7,64.0,30.04,NNE,17,6.0,16.0,97,0.00,,,0.01,169,weatherlink.com 1.10,2013-08-29 13:35:00,
2013-08-29 09:50:00,64.8,63.0,30.04,NNE,28,10.0,20.0,95,0.00,,,0.01,123,weatherlink.com 1.10,2013-08-29 13:50:00,
2013-08-29 10:05:00,65.0,63.0,30.05,NNE,30,8.0,15.0,94,0.00,,,0.01,118,weatherlink.com 1.10,2013-08-29 14:05:00,
2013-08-29 10:20:00,65.2,63.0,30.05,NE,48,9.0,14.0,93,0.00,,,0.01,104,weatherlink.com 1.10,2013-08-29 14:20:00,
2013-08-29 10:35:00,65.2,63.0,30.06,NE,46,9.0,15.0,93,0.00,,,0.01,81,weatherlink.com 1.10,2013-08-29 14:35:00,
2013-08-29 10:50:00,65.1,63.0,30.06,NE,39,5.0,17.0,92,0.00,,,0.01,98,weatherlink.com 1.10,2013-08-29 14:50:00,
2013-08-29 11:05:00,65.1,63.0,30.06,NE,48,10.0,14.0,92,0.00,,,0.01,83,weatherlink.com 1.10,2013-08-29 15:05:00,
2013-08-29 11:20:00,65.1,63.0,30.07,NE,46,7.0,11.0,92,0.00,,,0.01,56,weatherlink.com 1.10,2013-08-29 15:20:00,
2013-08-29 11:35:00,65.0,63.0,30.07,NE,38,5.0,10.0,92,0.00,,,0.01,49,weatherlink.com 1.10,2013-08-29 15:35:00,
2013-08-29 11:50:00,64.7,62.0,30.07,NE,55,2.0,15.0,92,0.00,,,0.01,53,weatherlink.com 1.10,2013-08-29 15:50:00,
2013-08-29 12:05:00,64.0,62.0,30.07,NE,51,9.0,16.0,94,0.00,,,0.01,107,weatherlink.com 1.10,2013-08-29 16:05:00,
2013-08-29 12:20:00,63.4,62.0,30.07,ENE,61,9.0,13.0,94,0.00,,,0.01,79,weatherlink.com 1.10,2013-08-29 16:20:00,
2013-08-29 12:35:00,63.4,62.0,30.07,NE,56,12.0,17.0,95,0.00,,,0.01,97,weatherlink.com 1.10,2013-08-29 16:35:00,
2013-08-29 12:50:00,63.3,62.0,30.07,NE,53,5.0,16.0,95,0.00,,,0.01,158,weatherlink.com 1.10,2013-08-29 16:50:00,
2013-08-29 13:05:00,63.4,62.0,30.07,NE,50,12.0,18.0,95,0.00,,,0.01,186,weatherlink.com 1.10,2013-08-29 17:05:00,
2013-08-29 13:20:00,63.3,62.0,30.07,NE,53,10.0,18.0,95,0.00,,,0.01,156,weatherlink.com 1.10,2013-08-29 17:20:00,
2013-08-29 13:35:00,63.2,62.0,30.07,NE,46,11.0,15.0,95,0.00,,,0.01,214,weatherlink.com 1.10,2013-08-29 17:35:00,
2013-08-29 13:50:00,63.2,62.0,30.07,NE,34,8.0,18.0,95,0.00,,,0.01,141,weatherlink.com 1.10,2013-08-29 17:50:00,
2013-08-29 14:05:00,63.2,62.0,30.07,NE,40,5.0,16.0,94,0.00,,,0.01,102,weatherlink.com 1.10,2013-08-29 18:05:00,
2013-08-29 14:20:00,63.3,62.0,30.06,NNE,21,6.0,15.0,94,0.00,,,0.01,97,weatherlink.com 1.10,2013-08-29 18:20:00,
2013-08-29 14:35:00,63.4,62.0,30.06,NE,53,4.0,14.0,94,0.00,,,0.01,127,weatherlink.com 1.10,2013-08-29 18:35:00,
2013-08-29 14:50:00,63.4,61.0,30.06,NE,51,3.0,15.0,93,0.00,,,0.01,121,weatherlink.com 1.10,2013-08-29 18:50:00,
2013-08-29 15:05:00,63.5,61.0,30.06,ENE,64,5.0,11.0,92,0.00,,,0.01,116,weatherlink.com 1.10,2013-08-29 19:05:00,
2013-08-29 15:20:00,63.8,61.0,30.06,East,79,3.0,11.0,91,0.00,,,0.01,113,weatherlink.com 1.10,2013-08-29 19:20:00,
2013-08-29 15:35:00,63.8,61.0,30.06,ENE,66,3.0,12.0,91,0.00,,,0.01,95,weatherlink.com 1.10,2013-08-29 19:35:00,
2013-08-29 15:50:00,63.8,61.0,30.06,NE,53,1.0,14.0,91,0.00,,,0.01,86,weatherlink.com 1.10,2013-08-29 19:50:00,
2013-08-29 16:05:00,63.6,61.0,30.06,ENE,58,1.0,11.0,91,0.00,,,0.01,56,weatherlink.com 1.10,2013-08-29 20:05:00,
2013-08-29 16:20:00,63.4,61.0,30.06,East,79,3.0,12.0,91,0.00,,,0.01,54,weatherlink.com 1.10,2013-08-29 20:20:00,
2013-08-29 16:35:00,63.3,61.0,30.07,ENE,69,3.0,13.0,91,0.00,,,0.01,56,weatherlink.com 1.10,2013-08-29 20:35:00,
2013-08-29 16:50:00,63.2,60.0,30.07,NE,42,8.0,11.0,90,0.00,,,0.01,44,weatherlink.com 1.10,2013-08-29 20:50:00,
2013-08-29 17:05:00,63.0,60.0,30.07,ENE,78,0.0,15.0,90,0.00,,,0.01,42,weatherlink.com 1.10,2013-08-29 21:05:00,
2013-08-29 17:20:00,62.9,60.0,30.07,ENE,74,7.0,14.0,90,0.00,,,0.01,30,weatherlink.com 1.10,2013-08-29 21:20:00,
2013-08-29 17:35:00,62.9,60.0,30.07,ENE,78,8.0,14.0,90,0.00,,,0.01,37,weatherlink.com 1.10,2013-08-29 21:35:00,
2013-08-29 17:50:00,63.0,60.0,30.08,ENE,60,2.0,13.0,89,0.00,,,0.01,40,weatherlink.com 1.10,2013-08-29 21:50:00,
2013-08-29 18:05:00,63.0,59.0,30.07,East,80,6.0,11.0,88,0.00,,,0.01,30,weatherlink.com 1.10,2013-08-29 22:05:00,
2013-08-29 18:20:00,63.0,59.0,30.07,East,80,5.0,11.0,88,0.00,,,0.01,23,weatherlink.com 1.10,2013-08-29 22:20:00,
2013-08-29 18:35:00,62.8,59.0,30.07,East,90,10.0,13.0,88,0.00,,,0.01,16,weatherlink.com 1.10,2013-08-29 22:35:00,
2013-08-29 18:50:00,62.6,59.0,30.07,East,93,6.0,10.0,89,0.00,,,0.01,11,weatherlink.com 1.10,2013-08-29 22:50:00,
2013-08-29 19:05:00,62.5,59.0,30.07,East,93,5.0,8.0,89,0.00,,,0.01,5,weatherlink.com 1.10,2013-08-29 23:05:00,
2013-08-29 19:20:00,62.3,59.0,30.07,East,91,3.0,7.0,89,0.00,,,0.01,0,weatherlink.com 1.10,2013-08-29 23:20:00,
2013-08-29 19:35:00,62.3,59.0,30.06,East,93,2.0,5.0,90,0.00,,,0.01,0,weatherlink.com 1.10,2013-08-29 23:35:00,
2013-08-29 19:50:00,62.2,59.0,30.06,East,93,3.0,5.0,90,0.00,,,0.01,0,weatherlink.com 1.10,2013-08-29 23:50:00,
2013-08-29 20:06:00,62.3,60.0,30.05,East,93,1.0,3.0,91,0.00,,,0.01,0,weatherlink.com 1.10,2013-08-30 00:06:00,
2013-08-29 20:21:00,62.3,60.0,30.06,East,93,0.0,2.0,91,0.00,,,0.01,0,weatherlink.com 1.10,2013-08-30 00:21:00,
2013-08-29 20:36:00,62.4,60.0,30.06,East,93,0.0,0.0,91,0.00,,,0.01,0,weatherlink.com 1.10,2013-08-30 00:36:00,
2013-08-29 20:51:00,62.5,60.0,30.06,East,93,0.0,0.0,91,0.00,,,0.01,0,weatherlink.com 1.10,2013-08-30 00:51:00,
2013-08-29 21:06:00,62.5,60.0,30.06,East,93,0.0,0.0,90,0.00,,,0.01,0,weatherlink.com 1.10,2013-08-30 01:06:00,
2013-08-29 21:21:00,62.6,60.0,30.06,East,93,0.0,0.0,90,0.00,,,0.01,0,weatherlink.com 1.10,2013-08-30 01:21:00,
2013-08-29 21:36:00,62.7,60.0,30.06,East,93,0.0,0.0,90,0.00,,,0.01,0,weatherlink.com 1.10,2013-08-30 01:36:00,
2013-08-29 21:51:00,63.0,60.0,30.07,East,93,0.0,0.0,89,0.00,,,0.01,0,weatherlink.com 1.10,2013-08-30 01:51:00,
2013-08-29 22:06:00,63.0,60.0,30.06,East,93,0.0,5.0,89,0.00,,,0.01,0,weatherlink.com 1.10,2013-08-30 02:06:00,
2013-08-29 22:21:00,63.1,60.0,30.06,East,90,6.0,8.0,88,0.00,,,0.01,0,weatherlink.com 1.10,2013-08-30 02:21:00,
2013-08-29 22:36:00,63.2,60.0,30.05,North,355,1.0,4.0,88,0.00,,,0.01,0,weatherlink.com 1.10,2013-08-30 02:36:00,
2013-08-29 22:51:00,63.2,59.0,30.05,North,355,2.0,6.0,87,0.00,,,0.01,0,weatherlink.com 1.10,2013-08-30 02:51:00,
2013-08-29 23:06:00,63.2,59.0,30.04,North,355,0.0,4.0,87,0.00,,,0.01,0,weatherlink.com 1.10,2013-08-30 03:06:00,
2013-08-29 23:21:00,63.3,59.0,30.03,North,355,2.0,5.0,87,0.00,,,0.01,0,weatherlink.com 1.10,2013-08-30 03:21:00,
2013-08-29 23:36:00,63.2,59.0,30.02,North,355,1.0,5.0,87,0.00,,,0.01,0,weatherlink.com 1.10,2013-08-30 03:36:00,
2013-08-29 23:51:00,63.2,59.0,30.02,North,355,0.0,0.0,87,0.00,,,0.01,0,weatherlink.com 1.10,2013-08-30 03:51:00,